sensor_id;sensor_type;location;lat;lon;timestamp;P1;durP1;ratioP1;P2;durP2;ratioP2
25299;SDS011;13241;51.208;4.432;2023-06-14T00:00:02;6.75;;;3.70;;
25299;SDS011;13241;51.208;4.432;2023-06-14T00:02:30;5.28;;;3.78;;
25299;SDS011;13241;51.208;4.432;2023-06-14T00:04:57;6.60;;;3.90;;
25299;SDS011;13241;51.208;4.432;2023-06-14T00:07:35;13.82;;;4.18;;
25299;SDS011;13241;51.208;4.432;2023-06-14T00:10:09;8.13;;;3.90;;
25299;SDS011;13241;51.208;4.432;2023-06-14T00:12:40;7.28;;;3.45;;
25299;SDS011;13241;51.208;4.432;2023-06-14T00:15:07;7.50;;;3.33;;
25299;SDS011;13241;51.208;4.432;2023-06-14T00:17:36;9.00;;;3.90;;
25299;SDS011;13241;51.208;4.432;2023-06-14T00:20:05;6.32;;;3.83;;
25299;SDS011;13241;51.208;4.432;2023-06-14T00:22:33;5.78;;;3.78;;
25299;SDS011;13241;51.208;4.432;2023-06-14T00:25:00;10.55;;;3.72;;
25299;SDS011;13241;51.208;4.432;2023-06-14T00:27:44;12.93;;;4.38;;
25299;SDS011;13241;51.208;4.432;2023-06-14T00:30:14;8.80;;;4.28;;
25299;SDS011;13241;51.208;4.432;2023-06-14T00:32:41;9.45;;;3.88;;
25299;SDS011;13241;51.208;4.432;2023-06-14T00:35:09;6.30;;;4.07;;
25299;SDS011;13241;51.208;4.432;2023-06-14T00:37:37;5.15;;;3.55;;
25299;SDS011;13241;51.208;4.432;2023-06-14T00:40:04;11.38;;;4.60;;
25299;SDS011;13241;51.208;4.432;2023-06-14T00:42:32;7.88;;;4.00;;
25299;SDS011;13241;51.208;4.432;2023-06-14T00:44:59;8.73;;;4.00;;
25299;SDS011;13241;51.208;4.432;2023-06-14T00:47:27;18.20;;;4.55;;
25299;SDS011;13241;51.208;4.432;2023-06-14T00:49:54;6.32;;;3.83;;
25299;SDS011;13241;51.208;4.432;2023-06-14T00:52:24;5.45;;;3.63;;
25299;SDS011;13241;51.208;4.432;2023-06-14T00:54:51;6.57;;;4.22;;
25299;SDS011;13241;51.208;4.432;2023-06-14T00:57:19;5.15;;;3.40;;
25299;SDS011;13241;51.208;4.432;2023-06-14T00:59:47;7.22;;;4.38;;
25299;SDS011;13241;51.208;4.432;2023-06-14T01:02:15;5.95;;;3.35;;
25299;SDS011;13241;51.208;4.432;2023-06-14T01:04:44;15.07;;;4.57;;
25299;SDS011;13241;51.208;4.432;2023-06-14T01:12:46;6.15;;;3.40;;
25299;SDS011;13241;51.208;4.432;2023-06-14T01:15:34;5.80;;;3.67;;
25299;SDS011;13241;51.208;4.432;2023-06-14T01:18:03;6.35;;;3.10;;
25299;SDS011;13241;51.208;4.432;2023-06-14T01:20:32;7.32;;;3.65;;
25299;SDS011;13241;51.208;4.432;2023-06-14T01:23:03;7.60;;;3.42;;
25299;SDS011;13241;51.208;4.432;2023-06-14T01:25:30;8.13;;;4.18;;
25299;SDS011;13241;51.208;4.432;2023-06-14T01:27:58;5.57;;;3.70;;
25299;SDS011;13241;51.208;4.432;2023-06-14T01:30:28;8.25;;;4.07;;
25299;SDS011;13241;51.208;4.432;2023-06-14T01:32:56;12.15;;;4.80;;
25299;SDS011;13241;51.208;4.432;2023-06-14T01:35:24;7.68;;;3.58;;
25299;SDS011;13241;51.208;4.432;2023-06-14T01:37:53;7.80;;;3.60;;
25299;SDS011;13241;51.208;4.432;2023-06-14T01:40:21;11.35;;;3.50;;
25299;SDS011;13241;51.208;4.432;2023-06-14T01:42:49;5.90;;;3.15;;
25299;SDS011;13241;51.208;4.432;2023-06-14T01:45:18;6.28;;;3.50;;
25299;SDS011;13241;51.208;4.432;2023-06-14T01:47:46;14.68;;;3.65;;
25299;SDS011;13241;51.208;4.432;2023-06-14T01:50:14;5.68;;;3.00;;
25299;SDS011;13241;51.208;4.432;2023-06-14T01:52:42;5.50;;;2.97;;
25299;SDS011;13241;51.208;4.432;2023-06-14T01:55:09;6.40;;;3.08;;
25299;SDS011;13241;51.208;4.432;2023-06-14T01:57:37;5.93;;;3.38;;
25299;SDS011;13241;51.208;4.432;2023-06-14T02:00:04;4.45;;;3.40;;
25299;SDS011;13241;51.208;4.432;2023-06-14T02:02:39;5.20;;;3.30;;
25299;SDS011;13241;51.208;4.432;2023-06-14T02:05:06;7.43;;;3.08;;
25299;SDS011;13241;51.208;4.432;2023-06-14T02:07:34;5.05;;;3.03;;
25299;SDS011;13241;51.208;4.432;2023-06-14T02:10:01;7.13;;;3.55;;
25299;SDS011;13241;51.208;4.432;2023-06-14T02:12:29;4.95;;;2.92;;
25299;SDS011;13241;51.208;4.432;2023-06-14T02:14:56;6.88;;;3.03;;
25299;SDS011;13241;51.208;4.432;2023-06-14T02:17:24;5.82;;;2.80;;
25299;SDS011;13241;51.208;4.432;2023-06-14T02:19:54;4.78;;;3.05;;
25299;SDS011;13241;51.208;4.432;2023-06-14T02:22:21;5.10;;;2.88;;
25299;SDS011;13241;51.208;4.432;2023-06-14T02:24:49;7.68;;;3.03;;
25299;SDS011;13241;51.208;4.432;2023-06-14T02:27:26;4.47;;;2.78;;
25299;SDS011;13241;51.208;4.432;2023-06-14T02:29:53;6.00;;;2.63;;
25299;SDS011;13241;51.208;4.432;2023-06-14T02:32:20;4.97;;;2.95;;
25299;SDS011;13241;51.208;4.432;2023-06-14T02:34:47;4.18;;;2.53;;
25299;SDS011;13241;51.208;4.432;2023-06-14T02:37:16;4.80;;;2.78;;
25299;SDS011;13241;51.208;4.432;2023-06-14T02:39:43;6.80;;;3.30;;
25299;SDS011;13241;51.208;4.432;2023-06-14T02:42:10;11.55;;;3.13;;
25299;SDS011;13241;51.208;4.432;2023-06-14T02:44:36;7.10;;;3.20;;
25299;SDS011;13241;51.208;4.432;2023-06-14T02:47:04;4.50;;;2.58;;
25299;SDS011;13241;51.208;4.432;2023-06-14T02:49:31;7.20;;;3.13;;
25299;SDS011;13241;51.208;4.432;2023-06-14T02:51:58;10.10;;;3.35;;
25299;SDS011;13241;51.208;4.432;2023-06-14T02:54:25;5.07;;;2.90;;
25299;SDS011;13241;51.208;4.432;2023-06-14T02:56:52;15.85;;;3.35;;
25299;SDS011;13241;51.208;4.432;2023-06-14T02:59:19;4.55;;;2.65;;
25299;SDS011;13241;51.208;4.432;2023-06-14T03:01:48;5.70;;;3.28;;
25299;SDS011;13241;51.208;4.432;2023-06-14T03:04:15;4.97;;;3.03;;
25299;SDS011;13241;51.208;4.432;2023-06-14T03:06:42;6.22;;;3.53;;
25299;SDS011;13241;51.208;4.432;2023-06-14T03:09:11;5.07;;;3.00;;
25299;SDS011;13241;51.208;4.432;2023-06-14T03:11:39;14.75;;;3.00;;
25299;SDS011;13241;51.208;4.432;2023-06-14T03:14:06;4.32;;;2.80;;
25299;SDS011;13241;51.208;4.432;2023-06-14T03:16:36;5.60;;;3.67;;
25299;SDS011;13241;51.208;4.432;2023-06-14T03:19:04;5.55;;;3.35;;
25299;SDS011;13241;51.208;4.432;2023-06-14T03:21:32;4.13;;;2.63;;
25299;SDS011;13241;51.208;4.432;2023-06-14T03:24:02;5.35;;;2.83;;
25299;SDS011;13241;51.208;4.432;2023-06-14T03:26:31;6.25;;;3.47;;
25299;SDS011;13241;51.208;4.432;2023-06-14T03:29:01;4.82;;;3.05;;
25299;SDS011;13241;51.208;4.432;2023-06-14T03:31:28;10.43;;;2.92;;
25299;SDS011;13241;51.208;4.432;2023-06-14T03:34:01;3.35;;;2.53;;
25299;SDS011;13241;51.208;4.432;2023-06-14T03:36:28;7.65;;;2.90;;
25299;SDS011;13241;51.208;4.432;2023-06-14T03:38:55;10.32;;;2.90;;
25299;SDS011;13241;51.208;4.432;2023-06-14T03:41:23;5.10;;;3.47;;
25299;SDS011;13241;51.208;4.432;2023-06-14T03:43:50;8.43;;;3.17;;
25299;SDS011;13241;51.208;4.432;2023-06-14T03:46:17;8.35;;;2.47;;
25299;SDS011;13241;51.208;4.432;2023-06-14T03:48:44;5.57;;;3.13;;
25299;SDS011;13241;51.208;4.432;2023-06-14T03:51:12;8.70;;;3.38;;
25299;SDS011;13241;51.208;4.432;2023-06-14T03:53:39;5.75;;;2.90;;
25299;SDS011;13241;51.208;4.432;2023-06-14T03:56:26;5.20;;;2.63;;
25299;SDS011;13241;51.208;4.432;2023-06-14T03:58:53;6.40;;;2.60;;
25299;SDS011;13241;51.208;4.432;2023-06-14T04:01:23;10.23;;;3.22;;
25299;SDS011;13241;51.208;4.432;2023-06-14T04:03:53;19.05;;;3.10;;
25299;SDS011;13241;51.208;4.432;2023-06-14T04:06:21;3.55;;;2.60;;
25299;SDS011;13241;51.208;4.432;2023-06-14T04:08:48;7.95;;;3.10;;
25299;SDS011;13241;51.208;4.432;2023-06-14T04:11:15;5.90;;;2.85;;
25299;SDS011;13241;51.208;4.432;2023-06-14T04:13:42;16.65;;;3.17;;
25299;SDS011;13241;51.208;4.432;2023-06-14T04:16:10;5.43;;;3.40;;
25299;SDS011;13241;51.208;4.432;2023-06-14T04:18:37;5.18;;;3.15;;
25299;SDS011;13241;51.208;4.432;2023-06-14T04:21:04;4.03;;;2.33;;
25299;SDS011;13241;51.208;4.432;2023-06-14T04:23:32;8.85;;;2.55;;
25299;SDS011;13241;51.208;4.432;2023-06-14T04:26:00;10.15;;;3.13;;
25299;SDS011;13241;51.208;4.432;2023-06-14T04:28:28;8.38;;;2.95;;
25299;SDS011;13241;51.208;4.432;2023-06-14T04:30:57;9.43;;;3.17;;
25299;SDS011;13241;51.208;4.432;2023-06-14T04:33:29;6.28;;;2.80;;
25299;SDS011;13241;51.208;4.432;2023-06-14T04:35:58;7.57;;;2.67;;
25299;SDS011;13241;51.208;4.432;2023-06-14T04:38:26;9.57;;;3.17;;
25299;SDS011;13241;51.208;4.432;2023-06-14T04:40:54;4.72;;;3.03;;
25299;SDS011;13241;51.208;4.432;2023-06-14T04:43:23;4.47;;;2.75;;
25299;SDS011;13241;51.208;4.432;2023-06-14T04:45:53;15.68;;;3.25;;
25299;SDS011;13241;51.208;4.432;2023-06-14T04:48:22;10.13;;;3.03;;
25299;SDS011;13241;51.208;4.432;2023-06-14T04:50:49;4.15;;;2.92;;
25299;SDS011;13241;51.208;4.432;2023-06-14T04:53:19;6.28;;;3.47;;
25299;SDS011;13241;51.208;4.432;2023-06-14T04:55:52;9.05;;;3.67;;
25299;SDS011;13241;51.208;4.432;2023-06-14T04:58:20;11.57;;;3.30;;
25299;SDS011;13241;51.208;4.432;2023-06-14T05:00:47;9.73;;;3.22;;
25299;SDS011;13241;51.208;4.432;2023-06-14T05:03:14;6.93;;;3.25;;
25299;SDS011;13241;51.208;4.432;2023-06-14T05:05:42;10.57;;;3.65;;
25299;SDS011;13241;51.208;4.432;2023-06-14T05:08:09;9.23;;;3.55;;
25299;SDS011;13241;51.208;4.432;2023-06-14T05:10:37;8.25;;;3.47;;
25299;SDS011;13241;51.208;4.432;2023-06-14T05:13:04;9.93;;;3.78;;
25299;SDS011;13241;51.208;4.432;2023-06-14T05:15:31;5.53;;;3.40;;
25299;SDS011;13241;51.208;4.432;2023-06-14T05:17:58;6.18;;;3.45;;
25299;SDS011;13241;51.208;4.432;2023-06-14T05:20:25;8.25;;;3.50;;
25299;SDS011;13241;51.208;4.432;2023-06-14T05:22:53;7.88;;;4.00;;
25299;SDS011;13241;51.208;4.432;2023-06-14T05:25:20;6.63;;;3.20;;
25299;SDS011;13241;51.208;4.432;2023-06-14T05:27:47;8.32;;;3.22;;
25299;SDS011;13241;51.208;4.432;2023-06-14T05:30:15;9.98;;;3.45;;
25299;SDS011;13241;51.208;4.432;2023-06-14T05:32:42;16.40;;;4.28;;
25299;SDS011;13241;51.208;4.432;2023-06-14T05:35:09;9.65;;;3.97;;
25299;SDS011;13241;51.208;4.432;2023-06-14T05:37:37;9.23;;;3.95;;
25299;SDS011;13241;51.208;4.432;2023-06-14T05:40:04;7.38;;;3.63;;
25299;SDS011;13241;51.208;4.432;2023-06-14T05:42:35;11.07;;;3.78;;
25299;SDS011;13241;51.208;4.432;2023-06-14T05:45:02;6.43;;;3.90;;
25299;SDS011;13241;51.208;4.432;2023-06-14T05:47:29;7.25;;;3.95;;
25299;SDS011;13241;51.208;4.432;2023-06-14T05:49:56;7.00;;;3.88;;
25299;SDS011;13241;51.208;4.432;2023-06-14T05:52:22;5.28;;;3.47;;
25299;SDS011;13241;51.208;4.432;2023-06-14T05:54:49;6.25;;;3.55;;
25299;SDS011;13241;51.208;4.432;2023-06-14T05:57:16;6.95;;;3.47;;
25299;SDS011;13241;51.208;4.432;2023-06-14T05:59:43;7.97;;;3.63;;
25299;SDS011;13241;51.208;4.432;2023-06-14T06:02:10;5.82;;;3.50;;
25299;SDS011;13241;51.208;4.432;2023-06-14T06:04:37;12.45;;;3.80;;
25299;SDS011;13241;51.208;4.432;2023-06-14T06:07:04;6.03;;;3.10;;
25299;SDS011;13241;51.208;4.432;2023-06-14T06:09:32;15.50;;;3.92;;
25299;SDS011;13241;51.208;4.432;2023-06-14T06:12:00;8.30;;;3.70;;
25299;SDS011;13241;51.208;4.432;2023-06-14T06:14:27;9.18;;;4.13;;
25299;SDS011;13241;51.208;4.432;2023-06-14T06:16:54;4.82;;;3.13;;
25299;SDS011;13241;51.208;4.432;2023-06-14T06:19:21;8.52;;;3.67;;
25299;SDS011;13241;51.208;4.432;2023-06-14T06:21:47;24.02;;;4.10;;
25299;SDS011;13241;51.208;4.432;2023-06-14T06:24:14;8.23;;;3.80;;
25299;SDS011;13241;51.208;4.432;2023-06-14T06:26:42;6.38;;;3.08;;
25299;SDS011;13241;51.208;4.432;2023-06-14T06:29:09;6.75;;;3.72;;
25299;SDS011;13241;51.208;4.432;2023-06-14T06:31:36;9.35;;;3.13;;
25299;SDS011;13241;51.208;4.432;2023-06-14T06:34:03;5.78;;;4.03;;
25299;SDS011;13241;51.208;4.432;2023-06-14T06:36:30;5.43;;;3.03;;
25299;SDS011;13241;51.208;4.432;2023-06-14T06:38:57;11.70;;;3.63;;
25299;SDS011;13241;51.208;4.432;2023-06-14T06:41:24;5.18;;;3.55;;
25299;SDS011;13241;51.208;4.432;2023-06-14T06:43:51;10.27;;;4.22;;
25299;SDS011;13241;51.208;4.432;2023-06-14T06:46:17;9.65;;;4.40;;
25299;SDS011;13241;51.208;4.432;2023-06-14T06:48:45;5.55;;;3.33;;
25299;SDS011;13241;51.208;4.432;2023-06-14T06:51:12;8.30;;;4.63;;
25299;SDS011;13241;51.208;4.432;2023-06-14T06:53:41;10.15;;;3.88;;
25299;SDS011;13241;51.208;4.432;2023-06-14T06:56:15;7.60;;;3.40;;
25299;SDS011;13241;51.208;4.432;2023-06-14T06:58:42;22.15;;;3.85;;
25299;SDS011;13241;51.208;4.432;2023-06-14T07:01:09;7.78;;;4.20;;
25299;SDS011;13241;51.208;4.432;2023-06-14T07:03:36;7.95;;;4.07;;
25299;SDS011;13241;51.208;4.432;2023-06-14T07:06:03;11.38;;;3.70;;
25299;SDS011;13241;51.208;4.432;2023-06-14T07:08:31;10.05;;;3.75;;
25299;SDS011;13241;51.208;4.432;2023-06-14T07:10:57;13.25;;;4.47;;
25299;SDS011;13241;51.208;4.432;2023-06-14T07:13:24;11.77;;;4.03;;
25299;SDS011;13241;51.208;4.432;2023-06-14T07:15:54;10.15;;;4.00;;
25299;SDS011;13241;51.208;4.432;2023-06-14T07:18:23;7.97;;;3.42;;
25299;SDS011;13241;51.208;4.432;2023-06-14T07:20:50;9.73;;;3.30;;
25299;SDS011;13241;51.208;4.432;2023-06-14T07:23:17;9.55;;;3.58;;
25299;SDS011;13241;51.208;4.432;2023-06-14T07:25:44;5.97;;;3.47;;
25299;SDS011;13241;51.208;4.432;2023-06-14T07:28:11;9.85;;;3.78;;
25299;SDS011;13241;51.208;4.432;2023-06-14T07:30:38;6.43;;;3.65;;
25299;SDS011;13241;51.208;4.432;2023-06-14T07:33:05;6.50;;;3.67;;
25299;SDS011;13241;51.208;4.432;2023-06-14T07:35:32;8.00;;;4.15;;
25299;SDS011;13241;51.208;4.432;2023-06-14T07:37:59;9.15;;;3.90;;
25299;SDS011;13241;51.208;4.432;2023-06-14T07:40:26;5.25;;;3.35;;
25299;SDS011;13241;51.208;4.432;2023-06-14T07:42:53;7.97;;;4.15;;
25299;SDS011;13241;51.208;4.432;2023-06-14T07:45:21;8.43;;;3.85;;
25299;SDS011;13241;51.208;4.432;2023-06-14T07:47:48;7.22;;;3.78;;
25299;SDS011;13241;51.208;4.432;2023-06-14T07:50:15;13.75;;;4.22;;
25299;SDS011;13241;51.208;4.432;2023-06-14T07:52:42;11.10;;;4.18;;
25299;SDS011;13241;51.208;4.432;2023-06-14T07:55:09;17.40;;;4.22;;
25299;SDS011;13241;51.208;4.432;2023-06-14T07:57:35;5.78;;;3.20;;
25299;SDS011;13241;51.208;4.432;2023-06-14T08:00:03;8.15;;;3.72;;
25299;SDS011;13241;51.208;4.432;2023-06-14T08:02:37;8.65;;;3.58;;
25299;SDS011;13241;51.208;4.432;2023-06-14T08:05:04;11.77;;;3.83;;
25299;SDS011;13241;51.208;4.432;2023-06-14T08:07:31;8.05;;;3.50;;
25299;SDS011;13241;51.208;4.432;2023-06-14T08:09:58;5.72;;;4.07;;
25299;SDS011;13241;51.208;4.432;2023-06-14T08:12:25;7.93;;;3.13;;
25299;SDS011;13241;51.208;4.432;2023-06-14T08:14:52;7.97;;;3.90;;
25299;SDS011;13241;51.208;4.432;2023-06-14T08:17:38;6.25;;;3.60;;
25299;SDS011;13241;51.208;4.432;2023-06-14T08:20:05;7.47;;;3.90;;
25299;SDS011;13241;51.208;4.432;2023-06-14T08:22:33;10.75;;;4.40;;
25299;SDS011;13241;51.208;4.432;2023-06-14T08:25:00;6.82;;;4.18;;
25299;SDS011;13241;51.208;4.432;2023-06-14T08:27:27;13.18;;;4.25;;
25299;SDS011;13241;51.208;4.432;2023-06-14T08:29:56;9.98;;;4.65;;
25299;SDS011;13241;51.208;4.432;2023-06-14T08:32:23;14.82;;;3.92;;
25299;SDS011;13241;51.208;4.432;2023-06-14T08:34:50;10.93;;;4.05;;
25299;SDS011;13241;51.208;4.432;2023-06-14T08:37:31;11.25;;;4.10;;
25299;SDS011;13241;51.208;4.432;2023-06-14T08:39:59;7.80;;;3.78;;
25299;SDS011;13241;51.208;4.432;2023-06-14T08:42:29;6.90;;;4.00;;
25299;SDS011;13241;51.208;4.432;2023-06-14T08:44:58;12.23;;;3.78;;
25299;SDS011;13241;51.208;4.432;2023-06-14T08:47:26;8.00;;;3.55;;
25299;SDS011;13241;51.208;4.432;2023-06-14T08:49:55;7.82;;;3.20;;
25299;SDS011;13241;51.208;4.432;2023-06-14T08:52:24;8.13;;;4.22;;
25299;SDS011;13241;51.208;4.432;2023-06-14T08:54:56;10.20;;;3.50;;
25299;SDS011;13241;51.208;4.432;2023-06-14T08:57:24;7.20;;;3.65;;
25299;SDS011;13241;51.208;4.432;2023-06-14T08:59:51;11.63;;;4.18;;
25299;SDS011;13241;51.208;4.432;2023-06-14T09:02:20;6.72;;;3.85;;
25299;SDS011;13241;51.208;4.432;2023-06-14T09:04:48;8.55;;;3.42;;
25299;SDS011;13241;51.208;4.432;2023-06-14T09:07:18;7.25;;;3.70;;
25299;SDS011;13241;51.208;4.432;2023-06-14T09:09:45;5.68;;;3.53;;
25299;SDS011;13241;51.208;4.432;2023-06-14T09:12:31;7.95;;;3.72;;
25299;SDS011;13241;51.208;4.432;2023-06-14T09:14:58;4.13;;;3.00;;
25299;SDS011;13241;51.208;4.432;2023-06-14T09:17:26;7.20;;;3.70;;
25299;SDS011;13241;51.208;4.432;2023-06-14T09:19:55;9.38;;;3.35;;
25299;SDS011;13241;51.208;4.432;2023-06-14T09:22:22;6.68;;;3.53;;
25299;SDS011;13241;51.208;4.432;2023-06-14T09:24:49;4.68;;;3.53;;
25299;SDS011;13241;51.208;4.432;2023-06-14T09:27:15;4.60;;;2.92;;
25299;SDS011;13241;51.208;4.432;2023-06-14T09:29:43;10.25;;;3.22;;
25299;SDS011;13241;51.208;4.432;2023-06-14T09:32:09;3.92;;;2.65;;
25299;SDS011;13241;51.208;4.432;2023-06-14T09:34:37;7.00;;;3.55;;
25299;SDS011;13241;51.208;4.432;2023-06-14T09:37:04;13.40;;;3.97;;
25299;SDS011;13241;51.208;4.432;2023-06-14T09:39:31;10.40;;;3.40;;
25299;SDS011;13241;51.208;4.432;2023-06-14T09:41:58;12.20;;;4.03;;
25299;SDS011;13241;51.208;4.432;2023-06-14T09:44:25;5.57;;;3.17;;
25299;SDS011;13241;51.208;4.432;2023-06-14T09:46:55;8.88;;;3.90;;
25299;SDS011;13241;51.208;4.432;2023-06-14T09:49:25;4.53;;;3.08;;
25299;SDS011;13241;51.208;4.432;2023-06-14T09:51:54;6.05;;;3.17;;
25299;SDS011;13241;51.208;4.432;2023-06-14T09:54:22;6.40;;;3.50;;
25299;SDS011;13241;51.208;4.432;2023-06-14T09:56:52;11.77;;;3.90;;
25299;SDS011;13241;51.208;4.432;2023-06-14T09:59:22;5.28;;;3.20;;
25299;SDS011;13241;51.208;4.432;2023-06-14T10:01:57;6.13;;;2.88;;
25299;SDS011;13241;51.208;4.432;2023-06-14T10:04:27;15.07;;;2.90;;
25299;SDS011;13241;51.208;4.432;2023-06-14T10:06:57;3.55;;;2.70;;
25299;SDS011;13241;51.208;4.432;2023-06-14T10:09:25;6.45;;;2.53;;
25299;SDS011;13241;51.208;4.432;2023-06-14T10:11:54;7.07;;;2.92;;
25299;SDS011;13241;51.208;4.432;2023-06-14T10:14:22;4.68;;;3.40;;
25299;SDS011;13241;51.208;4.432;2023-06-14T10:17:07;4.43;;;2.83;;
25299;SDS011;13241;51.208;4.432;2023-06-14T10:19:40;5.20;;;2.40;;
25299;SDS011;13241;51.208;4.432;2023-06-14T10:22:24;3.92;;;2.25;;
25299;SDS011;13241;51.208;4.432;2023-06-14T10:25:01;3.88;;;2.03;;
25299;SDS011;13241;51.208;4.432;2023-06-14T10:27:28;4.85;;;2.85;;
25299;SDS011;13241;51.208;4.432;2023-06-14T10:32:24;7.28;;;2.88;;
25299;SDS011;13241;51.208;4.432;2023-06-14T10:34:56;4.55;;;2.40;;
25299;SDS011;13241;51.208;4.432;2023-06-14T10:37:28;3.40;;;2.28;;
25299;SDS011;13241;51.208;4.432;2023-06-14T10:39:55;3.58;;;2.20;;
25299;SDS011;13241;51.208;4.432;2023-06-14T10:42:23;4.30;;;2.92;;
25299;SDS011;13241;51.208;4.432;2023-06-14T10:45:00;7.15;;;2.65;;
25299;SDS011;13241;51.208;4.432;2023-06-14T10:47:31;7.28;;;2.85;;
25299;SDS011;13241;51.208;4.432;2023-06-14T10:50:05;5.15;;;2.15;;
25299;SDS011;13241;51.208;4.432;2023-06-14T10:52:40;14.05;;;2.58;;
25299;SDS011;13241;51.208;4.432;2023-06-14T10:55:13;4.80;;;2.63;;
25299;SDS011;13241;51.208;4.432;2023-06-14T10:57:44;5.47;;;2.50;;
25299;SDS011;13241;51.208;4.432;2023-06-14T11:00:15;3.63;;;2.43;;
25299;SDS011;13241;51.208;4.432;2023-06-14T11:05:14;3.85;;;2.05;;
25299;SDS011;13241;51.208;4.432;2023-06-14T11:10:44;11.10;;;2.50;;
25299;SDS011;13241;51.208;4.432;2023-06-14T11:13:15;7.05;;;2.45;;
25299;SDS011;13241;51.208;4.432;2023-06-14T11:15:44;4.22;;;2.60;;
25299;SDS011;13241;51.208;4.432;2023-06-14T11:18:13;5.90;;;2.33;;
25299;SDS011;13241;51.208;4.432;2023-06-14T11:20:40;4.88;;;2.70;;
25299;SDS011;13241;51.208;4.432;2023-06-14T11:23:07;4.35;;;2.10;;
25299;SDS011;13241;51.208;4.432;2023-06-14T11:25:34;9.25;;;2.05;;
25299;SDS011;13241;51.208;4.432;2023-06-14T11:28:01;10.32;;;3.63;;
25299;SDS011;13241;51.208;4.432;2023-06-14T11:30:27;4.50;;;2.42;;
25299;SDS011;13241;51.208;4.432;2023-06-14T11:32:54;5.32;;;2.25;;
25299;SDS011;13241;51.208;4.432;2023-06-14T11:35:25;8.93;;;2.50;;
25299;SDS011;13241;51.208;4.432;2023-06-14T11:37:53;6.78;;;3.17;;
25299;SDS011;13241;51.208;4.432;2023-06-14T11:40:25;46.72;;;5.63;;
25299;SDS011;13241;51.208;4.432;2023-06-14T11:42:58;5.38;;;2.50;;
25299;SDS011;13241;51.208;4.432;2023-06-14T11:45:27;9.43;;;1.77;;
25299;SDS011;13241;51.208;4.432;2023-06-14T11:47:54;4.82;;;3.03;;
25299;SDS011;13241;51.208;4.432;2023-06-14T11:50:25;13.35;;;2.58;;
25299;SDS011;13241;51.208;4.432;2023-06-14T11:52:53;4.20;;;2.40;;
25299;SDS011;13241;51.208;4.432;2023-06-14T11:55:26;7.38;;;2.13;;
25299;SDS011;13241;51.208;4.432;2023-06-14T11:57:56;10.57;;;2.92;;
25299;SDS011;13241;51.208;4.432;2023-06-14T12:00:26;9.55;;;2.35;;
25299;SDS011;13241;51.208;4.432;2023-06-14T12:02:54;7.38;;;1.85;;
25299;SDS011;13241;51.208;4.432;2023-06-14T12:05:24;7.90;;;2.67;;
25299;SDS011;13241;51.208;4.432;2023-06-14T12:07:59;8.25;;;2.50;;
25299;SDS011;13241;51.208;4.432;2023-06-14T12:10:28;8.73;;;2.40;;
25299;SDS011;13241;51.208;4.432;2023-06-14T12:12:56;4.28;;;1.63;;
25299;SDS011;13241;51.208;4.432;2023-06-14T12:15:27;3.28;;;1.90;;
25299;SDS011;13241;51.208;4.432;2023-06-14T12:17:58;17.55;;;2.85;;
25299;SDS011;13241;51.208;4.432;2023-06-14T12:20:29;2.58;;;1.98;;
25299;SDS011;13241;51.208;4.432;2023-06-14T12:23:02;21.40;;;3.13;;
25299;SDS011;13241;51.208;4.432;2023-06-14T12:25:30;8.27;;;2.47;;
25299;SDS011;13241;51.208;4.432;2023-06-14T12:27:59;6.68;;;1.88;;
25299;SDS011;13241;51.208;4.432;2023-06-14T12:30:36;3.15;;;1.67;;
25299;SDS011;13241;51.208;4.432;2023-06-14T12:33:04;4.18;;;1.63;;
25299;SDS011;13241;51.208;4.432;2023-06-14T12:35:32;4.10;;;1.33;;
25299;SDS011;13241;51.208;4.432;2023-06-14T12:37:59;5.28;;;1.83;;
25299;SDS011;13241;51.208;4.432;2023-06-14T12:40:26;11.43;;;2.05;;
25299;SDS011;13241;51.208;4.432;2023-06-14T12:42:53;10.68;;;2.10;;
25299;SDS011;13241;51.208;4.432;2023-06-14T12:45:20;4.43;;;1.65;;
25299;SDS011;13241;51.208;4.432;2023-06-14T12:47:47;13.25;;;2.08;;
25299;SDS011;13241;51.208;4.432;2023-06-14T12:50:14;8.38;;;1.98;;
25299;SDS011;13241;51.208;4.432;2023-06-14T12:52:42;3.75;;;1.70;;
25299;SDS011;13241;51.208;4.432;2023-06-14T12:55:09;1.42;;;1.17;;
25299;SDS011;13241;51.208;4.432;2023-06-14T12:57:36;3.58;;;1.40;;
25299;SDS011;13241;51.208;4.432;2023-06-14T13:00:04;6.03;;;1.30;;
25299;SDS011;13241;51.208;4.432;2023-06-14T13:02:33;5.07;;;1.58;;
25299;SDS011;13241;51.208;4.432;2023-06-14T13:05:01;6.90;;;1.10;;
25299;SDS011;13241;51.208;4.432;2023-06-14T13:07:30;2.13;;;1.20;;
25299;SDS011;13241;51.208;4.432;2023-06-14T13:09:57;7.05;;;1.30;;
25299;SDS011;13241;51.208;4.432;2023-06-14T13:12:24;2.28;;;1.30;;
25299;SDS011;13241;51.208;4.432;2023-06-14T13:14:50;1.20;;;0.88;;
25299;SDS011;13241;51.208;4.432;2023-06-14T13:17:17;2.08;;;1.17;;
25299;SDS011;13241;51.208;4.432;2023-06-14T13:19:44;5.18;;;1.13;;
25299;SDS011;13241;51.208;4.432;2023-06-14T13:22:11;1.83;;;0.90;;
25299;SDS011;13241;51.208;4.432;2023-06-14T13:24:38;4.38;;;1.15;;
25299;SDS011;13241;51.208;4.432;2023-06-14T13:27:05;4.22;;;1.10;;
25299;SDS011;13241;51.208;4.432;2023-06-14T13:29:33;2.55;;;1.02;;
25299;SDS011;13241;51.208;4.432;2023-06-14T13:32:02;1.38;;;0.77;;
25299;SDS011;13241;51.208;4.432;2023-06-14T13:34:30;1.90;;;1.08;;
25299;SDS011;13241;51.208;4.432;2023-06-14T13:36:57;3.63;;;1.00;;
25299;SDS011;13241;51.208;4.432;2023-06-14T13:39:25;1.05;;;0.85;;
25299;SDS011;13241;51.208;4.432;2023-06-14T13:41:53;6.15;;;0.80;;
25299;SDS011;13241;51.208;4.432;2023-06-14T13:44:19;5.13;;;0.90;;
25299;SDS011;13241;51.208;4.432;2023-06-14T13:46:47;5.63;;;1.25;;
25299;SDS011;13241;51.208;4.432;2023-06-14T13:49:14;1.25;;;0.90;;
25299;SDS011;13241;51.208;4.432;2023-06-14T13:51:41;5.55;;;1.10;;
25299;SDS011;13241;51.208;4.432;2023-06-14T13:54:08;0.98;;;0.80;;
25299;SDS011;13241;51.208;4.432;2023-06-14T13:56:35;1.20;;;1.00;;
25299;SDS011;13241;51.208;4.432;2023-06-14T13:59:02;5.43;;;1.58;;
25299;SDS011;13241;51.208;4.432;2023-06-14T14:01:29;4.68;;;1.35;;
25299;SDS011;13241;51.208;4.432;2023-06-14T14:03:56;3.38;;;1.10;;
25299;SDS011;13241;51.208;4.432;2023-06-14T14:06:25;1.33;;;0.77;;
25299;SDS011;13241;51.208;4.432;2023-06-14T14:08:51;1.63;;;1.00;;
25299;SDS011;13241;51.208;4.432;2023-06-14T14:11:19;7.28;;;1.08;;
25299;SDS011;13241;51.208;4.432;2023-06-14T14:13:46;0.95;;;0.90;;
25299;SDS011;13241;51.208;4.432;2023-06-14T14:16:15;5.93;;;1.10;;
25299;SDS011;13241;51.208;4.432;2023-06-14T14:18:42;2.08;;;0.90;;
25299;SDS011;13241;51.208;4.432;2023-06-14T14:21:09;2.53;;;0.80;;
25299;SDS011;13241;51.208;4.432;2023-06-14T14:23:36;4.20;;;1.20;;
25299;SDS011;13241;51.208;4.432;2023-06-14T14:26:06;6.05;;;1.60;;
25299;SDS011;13241;51.208;4.432;2023-06-14T14:28:33;3.60;;;1.30;;
25299;SDS011;13241;51.208;4.432;2023-06-14T14:31:00;6.78;;;1.80;;
25299;SDS011;13241;51.208;4.432;2023-06-14T14:33:27;1.65;;;1.13;;
25299;SDS011;13241;51.208;4.432;2023-06-14T14:35:54;1.33;;;1.00;;
25299;SDS011;13241;51.208;4.432;2023-06-14T14:38:21;2.90;;;1.27;;
25299;SDS011;13241;51.208;4.432;2023-06-14T14:40:48;4.57;;;1.20;;
25299;SDS011;13241;51.208;4.432;2023-06-14T14:43:15;3.75;;;1.42;;
25299;SDS011;13241;51.208;4.432;2023-06-14T14:45:42;2.40;;;1.05;;
25299;SDS011;13241;51.208;4.432;2023-06-14T14:48:09;2.03;;;1.20;;
25299;SDS011;13241;51.208;4.432;2023-06-14T14:50:36;7.03;;;1.58;;
25299;SDS011;13241;51.208;4.432;2023-06-14T14:53:04;3.53;;;0.85;;
25299;SDS011;13241;51.208;4.432;2023-06-14T14:55:31;2.67;;;1.05;;
25299;SDS011;13241;51.208;4.432;2023-06-14T14:58:01;2.15;;;1.25;;
25299;SDS011;13241;51.208;4.432;2023-06-14T15:00:30;1.52;;;1.05;;
25299;SDS011;13241;51.208;4.432;2023-06-14T15:02:57;2.75;;;1.30;;
25299;SDS011;13241;51.208;4.432;2023-06-14T15:05:24;2.45;;;1.27;;